KACB/ACB METAR and TAF weather

Enter ICAO airport designator
Station Type Date Time Source
KACB METAR 2018/07/21 22:55 UTC NOAA

KACB 212255Z AUTO 01005KT 10SM SCT035 BKN046 OVC090 21/20 A2987 RMK AO2 T02110197


Station Type Date Time Source
KACB Decoded METAR 2018/07/21 22:55 UTC NOAA

Bellaire, Antrim County Airport, MI, United States (KACB) 44-59-18N 085-11-54W
Jul 21, 2018 - 06:55 PM EDT / 2018.07.21 2255 UTC
Wind: from the N (010 degrees) at 6 MPH (5 KT):0
Visibility: 10 mile(s):0
Sky conditions: overcast
Temperature: 70.0 F (21.1 C)
Dew Point: 67.5 F (19.7 C)
Relative Humidity: 91%
Pressure (altimeter): 29.87 in. Hg (1011 hPa)
ob: KACB 212255Z AUTO 01005KT 10SM SCT035 BKN046 OVC090 21/20 A2987 RMK AO2 T02110197
cycle: 23

Station Type Date Time Source
KACB TAF UTC NOAA

Error!


Example: see airport list